sensor_id;sensor_type;location;lat;lon;timestamp;P1;durP1;ratioP1;P2;durP2;ratioP2
6937;SDS011;40040;42.706;23.372;2023-02-11T00:01:07;24.77;;;9.83;;
6937;SDS011;40040;42.706;23.372;2023-02-11T00:03:37;25.40;;;9.93;;
6937;SDS011;40040;42.706;23.372;2023-02-11T00:06:04;21.93;;;9.67;;
6937;SDS011;40040;42.706;23.372;2023-02-11T00:08:33;25.00;;;10.40;;
6937;SDS011;40040;42.706;23.372;2023-02-11T00:11:00;22.67;;;10.00;;
6937;SDS011;40040;42.706;23.372;2023-02-11T00:13:28;20.93;;;9.80;;
6937;SDS011;40040;42.706;23.372;2023-02-11T00:15:55;26.90;;;10.60;;
6937;SDS011;40040;42.706;23.372;2023-02-11T00:18:22;22.70;;;9.60;;
6937;SDS011;40040;42.706;23.372;2023-02-11T00:20:50;21.63;;;9.87;;
6937;SDS011;40040;42.706;23.372;2023-02-11T00:23:17;21.80;;;10.23;;
6937;SDS011;40040;42.706;23.372;2023-02-11T00:25:44;23.40;;;10.23;;
6937;SDS011;40040;42.706;23.372;2023-02-11T00:28:11;24.90;;;10.87;;
6937;SDS011;40040;42.706;23.372;2023-02-11T00:30:38;22.63;;;10.00;;
6937;SDS011;40040;42.706;23.372;2023-02-11T00:33:05;28.47;;;9.87;;
6937;SDS011;40040;42.706;23.372;2023-02-11T00:53:11;32.47;;;14.07;;
6937;SDS011;40040;42.706;23.372;2023-02-11T00:55:38;29.30;;;11.77;;
6937;SDS011;40040;42.706;23.372;2023-02-11T00:58:05;30.17;;;10.87;;
6937;SDS011;40040;42.706;23.372;2023-02-11T01:00:31;25.57;;;10.07;;
6937;SDS011;40040;42.706;23.372;2023-02-11T01:02:58;21.87;;;9.67;;
6937;SDS011;40040;42.706;23.372;2023-02-11T01:05:25;26.20;;;9.73;;
6937;SDS011;40040;42.706;23.372;2023-02-11T01:07:53;20.27;;;9.10;;
6937;SDS011;40040;42.706;23.372;2023-02-11T01:10:21;24.07;;;9.77;;
6937;SDS011;40040;42.706;23.372;2023-02-11T01:12:48;22.30;;;8.73;;
6937;SDS011;40040;42.706;23.372;2023-02-11T01:15:16;18.13;;;8.83;;
6937;SDS011;40040;42.706;23.372;2023-02-11T01:17:45;21.40;;;9.33;;
6937;SDS011;40040;42.706;23.372;2023-02-11T01:20:12;18.30;;;8.40;;
6937;SDS011;40040;42.706;23.372;2023-02-11T01:22:42;21.03;;;9.17;;
6937;SDS011;40040;42.706;23.372;2023-02-11T01:25:09;22.03;;;9.37;;
6937;SDS011;40040;42.706;23.372;2023-02-11T01:27:37;21.63;;;10.30;;
6937;SDS011;40040;42.706;23.372;2023-02-11T01:30:04;25.43;;;11.03;;
6937;SDS011;40040;42.706;23.372;2023-02-11T01:32:34;29.33;;;11.93;;
6937;SDS011;40040;42.706;23.372;2023-02-11T01:35:01;27.77;;;10.93;;
6937;SDS011;40040;42.706;23.372;2023-02-11T01:37:28;27.93;;;11.53;;
6937;SDS011;40040;42.706;23.372;2023-02-11T01:39:57;23.27;;;10.23;;
6937;SDS011;40040;42.706;23.372;2023-02-11T01:42:24;35.37;;;12.57;;
6937;SDS011;40040;42.706;23.372;2023-02-11T01:44:53;25.87;;;10.80;;
6937;SDS011;40040;42.706;23.372;2023-02-11T01:47:20;28.37;;;10.37;;
6937;SDS011;40040;42.706;23.372;2023-02-11T01:49:48;33.87;;;11.77;;
6937;SDS011;40040;42.706;23.372;2023-02-11T01:52:18;25.43;;;11.53;;
6937;SDS011;40040;42.706;23.372;2023-02-11T01:54:51;26.40;;;10.27;;
6937;SDS011;40040;42.706;23.372;2023-02-11T01:57:34;21.63;;;9.27;;
6937;SDS011;40040;42.706;23.372;2023-02-11T02:00:07;25.80;;;11.03;;
6937;SDS011;40040;42.706;23.372;2023-02-11T02:02:38;31.00;;;13.03;;
6937;SDS011;40040;42.706;23.372;2023-02-11T02:05:13;27.60;;;10.57;;
6937;SDS011;40040;42.706;23.372;2023-02-11T02:07:48;19.37;;;8.60;;
6937;SDS011;40040;42.706;23.372;2023-02-11T02:10:22;19.90;;;8.70;;
6937;SDS011;40040;42.706;23.372;2023-02-11T02:12:52;18.87;;;9.17;;
6937;SDS011;40040;42.706;23.372;2023-02-11T02:15:22;20.57;;;8.13;;
6937;SDS011;40040;42.706;23.372;2023-02-11T02:17:56;18.57;;;7.30;;
6937;SDS011;40040;42.706;23.372;2023-02-11T02:20:34;14.70;;;7.50;;
6937;SDS011;40040;42.706;23.372;2023-02-11T02:23:25;14.57;;;6.77;;
6937;SDS011;40040;42.706;23.372;2023-02-11T02:26:17;14.43;;;6.57;;
6937;SDS011;40040;42.706;23.372;2023-02-11T02:32:37;15.00;;;6.50;;
6937;SDS011;40040;42.706;23.372;2023-02-11T02:35:10;13.57;;;6.10;;
6937;SDS011;40040;42.706;23.372;2023-02-11T02:37:49;13.40;;;5.60;;
6937;SDS011;40040;42.706;23.372;2023-02-11T02:40:23;11.30;;;5.30;;
6937;SDS011;40040;42.706;23.372;2023-02-11T02:42:54;15.30;;;6.10;;
6937;SDS011;40040;42.706;23.372;2023-02-11T02:45:21;15.53;;;5.57;;
6937;SDS011;40040;42.706;23.372;2023-02-11T02:47:50;16.97;;;6.00;;
6937;SDS011;40040;42.706;23.372;2023-02-11T02:50:17;12.73;;;6.13;;
6937;SDS011;40040;42.706;23.372;2023-02-11T02:52:51;16.50;;;7.43;;
6937;SDS011;40040;42.706;23.372;2023-02-11T02:55:34;12.20;;;5.67;;
6937;SDS011;40040;42.706;23.372;2023-02-11T03:01:12;16.20;;;6.60;;
6937;SDS011;40040;42.706;23.372;2023-02-11T03:03:48;14.10;;;7.50;;
6937;SDS011;40040;42.706;23.372;2023-02-11T03:06:26;14.37;;;7.20;;
6937;SDS011;40040;42.706;23.372;2023-02-11T03:08:58;12.60;;;6.33;;
6937;SDS011;40040;42.706;23.372;2023-02-11T03:11:31;11.80;;;6.53;;
6937;SDS011;40040;42.706;23.372;2023-02-11T03:13:59;17.00;;;7.17;;
6937;SDS011;40040;42.706;23.372;2023-02-11T03:16:29;23.95;;;10.70;;
6937;SDS011;40040;42.706;23.372;2023-02-11T03:19:02;19.00;;;7.63;;
6937;SDS011;40040;42.706;23.372;2023-02-11T03:21:36;22.47;;;6.87;;
6937;SDS011;40040;42.706;23.372;2023-02-11T03:24:07;15.63;;;6.00;;
6937;SDS011;40040;42.706;23.372;2023-02-11T03:26:39;14.63;;;6.17;;
6937;SDS011;40040;42.706;23.372;2023-02-11T03:29:12;11.10;;;4.77;;
6937;SDS011;40040;42.706;23.372;2023-02-11T03:31:44;11.27;;;5.90;;
6937;SDS011;40040;42.706;23.372;2023-02-11T03:34:20;11.57;;;5.77;;
6937;SDS011;40040;42.706;23.372;2023-02-11T03:36:53;11.93;;;5.67;;
6937;SDS011;40040;42.706;23.372;2023-02-11T03:39:26;14.83;;;6.23;;
6937;SDS011;40040;42.706;23.372;2023-02-11T03:41:58;12.07;;;5.60;;
6937;SDS011;40040;42.706;23.372;2023-02-11T03:44:29;12.00;;;5.27;;
6937;SDS011;40040;42.706;23.372;2023-02-11T03:47:00;11.10;;;6.73;;
6937;SDS011;40040;42.706;23.372;2023-02-11T03:49:30;13.70;;;6.17;;
6937;SDS011;40040;42.706;23.372;2023-02-11T03:51:58;15.97;;;6.40;;
6937;SDS011;40040;42.706;23.372;2023-02-11T03:54:28;11.00;;;5.10;;
6937;SDS011;40040;42.706;23.372;2023-02-11T03:56:57;12.97;;;5.27;;
6937;SDS011;40040;42.706;23.372;2023-02-11T03:59:25;9.50;;;5.43;;
6937;SDS011;40040;42.706;23.372;2023-02-11T04:01:52;10.97;;;4.83;;
6937;SDS011;40040;42.706;23.372;2023-02-11T04:04:20;21.97;;;9.90;;
6937;SDS011;40040;42.706;23.372;2023-02-11T04:06:48;18.83;;;8.03;;
6937;SDS011;40040;42.706;23.372;2023-02-11T04:09:15;13.33;;;6.43;;
6937;SDS011;40040;42.706;23.372;2023-02-11T04:11:42;15.53;;;6.57;;
6937;SDS011;40040;42.706;23.372;2023-02-11T04:14:09;14.10;;;6.80;;
6937;SDS011;40040;42.706;23.372;2023-02-11T04:16:35;18.70;;;6.63;;
6937;SDS011;40040;42.706;23.372;2023-02-11T04:19:02;15.60;;;7.57;;
6937;SDS011;40040;42.706;23.372;2023-02-11T04:21:29;17.70;;;7.27;;
6937;SDS011;40040;42.706;23.372;2023-02-11T04:23:57;15.57;;;7.33;;
6937;SDS011;40040;42.706;23.372;2023-02-11T04:26:24;16.63;;;6.83;;
6937;SDS011;40040;42.706;23.372;2023-02-11T04:28:51;16.33;;;6.60;;
6937;SDS011;40040;42.706;23.372;2023-02-11T04:31:18;18.17;;;8.50;;
6937;SDS011;40040;42.706;23.372;2023-02-11T04:33:44;15.93;;;6.77;;
6937;SDS011;40040;42.706;23.372;2023-02-11T04:36:11;14.03;;;5.87;;
6937;SDS011;40040;42.706;23.372;2023-02-11T04:38:38;15.27;;;6.07;;
6937;SDS011;40040;42.706;23.372;2023-02-11T04:41:06;14.87;;;6.03;;
6937;SDS011;40040;42.706;23.372;2023-02-11T04:43:33;13.27;;;5.93;;
6937;SDS011;40040;42.706;23.372;2023-02-11T04:46:00;14.63;;;6.10;;
6937;SDS011;40040;42.706;23.372;2023-02-11T04:48:27;16.50;;;6.83;;
6937;SDS011;40040;42.706;23.372;2023-02-11T04:50:54;14.53;;;6.63;;
6937;SDS011;40040;42.706;23.372;2023-02-11T04:53:21;15.17;;;7.23;;
6937;SDS011;40040;42.706;23.372;2023-02-11T04:55:48;12.27;;;6.77;;
6937;SDS011;40040;42.706;23.372;2023-02-11T04:58:17;10.07;;;5.43;;
6937;SDS011;40040;42.706;23.372;2023-02-11T05:00:44;11.27;;;5.90;;
6937;SDS011;40040;42.706;23.372;2023-02-11T05:03:12;14.60;;;6.70;;
6937;SDS011;40040;42.706;23.372;2023-02-11T05:05:39;12.40;;;6.33;;
6937;SDS011;40040;42.706;23.372;2023-02-11T05:08:07;14.80;;;5.47;;
6937;SDS011;40040;42.706;23.372;2023-02-11T05:10:36;9.47;;;5.30;;
6937;SDS011;40040;42.706;23.372;2023-02-11T05:13:03;9.90;;;5.27;;
6937;SDS011;40040;42.706;23.372;2023-02-11T05:15:32;11.00;;;5.70;;
6937;SDS011;40040;42.706;23.372;2023-02-11T05:17:58;21.10;;;10.35;;
6937;SDS011;40040;42.706;23.372;2023-02-11T05:20:25;17.93;;;7.10;;
6937;SDS011;40040;42.706;23.372;2023-02-11T05:22:52;16.80;;;6.60;;
6937;SDS011;40040;42.706;23.372;2023-02-11T05:25:19;16.27;;;6.17;;
6937;SDS011;40040;42.706;23.372;2023-02-11T05:27:46;11.80;;;6.80;;
6937;SDS011;40040;42.706;23.372;2023-02-11T05:30:13;15.67;;;6.87;;
6937;SDS011;40040;42.706;23.372;2023-02-11T05:32:41;18.80;;;7.53;;
6937;SDS011;40040;42.706;23.372;2023-02-11T05:35:08;26.60;;;9.60;;
6937;SDS011;40040;42.706;23.372;2023-02-11T05:37:35;26.57;;;10.60;;
6937;SDS011;40040;42.706;23.372;2023-02-11T05:40:02;28.20;;;11.23;;
6937;SDS011;40040;42.706;23.372;2023-02-11T05:42:30;24.63;;;11.10;;
6937;SDS011;40040;42.706;23.372;2023-02-11T05:44:56;20.90;;;11.47;;
6937;SDS011;40040;42.706;23.372;2023-02-11T05:47:23;24.47;;;12.30;;
6937;SDS011;40040;42.706;23.372;2023-02-11T05:49:52;34.20;;;13.47;;
6937;SDS011;40040;42.706;23.372;2023-02-11T05:52:19;32.53;;;12.90;;
6937;SDS011;40040;42.706;23.372;2023-02-11T05:54:46;27.87;;;11.60;;
6937;SDS011;40040;42.706;23.372;2023-02-11T05:57:13;31.40;;;11.80;;
6937;SDS011;40040;42.706;23.372;2023-02-11T05:59:40;30.70;;;12.23;;
6937;SDS011;40040;42.706;23.372;2023-02-11T06:02:08;28.53;;;12.73;;
6937;SDS011;40040;42.706;23.372;2023-02-11T06:04:35;29.67;;;11.23;;
6937;SDS011;40040;42.706;23.372;2023-02-11T06:07:04;31.13;;;10.83;;
6937;SDS011;40040;42.706;23.372;2023-02-11T06:09:31;20.40;;;8.47;;
6937;SDS011;40040;42.706;23.372;2023-02-11T06:11:58;17.93;;;7.10;;
6937;SDS011;40040;42.706;23.372;2023-02-11T06:14:25;13.90;;;6.80;;
6937;SDS011;40040;42.706;23.372;2023-02-11T06:16:52;13.53;;;7.17;;
6937;SDS011;40040;42.706;23.372;2023-02-11T06:19:18;22.53;;;10.33;;
6937;SDS011;40040;42.706;23.372;2023-02-11T06:21:45;24.17;;;9.73;;
6937;SDS011;40040;42.706;23.372;2023-02-11T06:24:14;17.37;;;8.40;;
6937;SDS011;40040;42.706;23.372;2023-02-11T06:26:40;17.43;;;8.63;;
6937;SDS011;40040;42.706;23.372;2023-02-11T06:29:07;12.97;;;6.83;;
6937;SDS011;40040;42.706;23.372;2023-02-11T06:31:35;14.97;;;7.17;;
6937;SDS011;40040;42.706;23.372;2023-02-11T06:34:02;18.37;;;7.87;;
6937;SDS011;40040;42.706;23.372;2023-02-11T06:36:29;21.00;;;7.70;;
6937;SDS011;40040;42.706;23.372;2023-02-11T06:38:56;19.33;;;9.27;;
6937;SDS011;40040;42.706;23.372;2023-02-11T06:41:24;14.30;;;6.67;;
6937;SDS011;40040;42.706;23.372;2023-02-11T06:43:52;27.23;;;9.43;;
6937;SDS011;40040;42.706;23.372;2023-02-11T06:46:19;13.63;;;6.63;;
6937;SDS011;40040;42.706;23.372;2023-02-11T06:48:45;19.17;;;8.73;;
6937;SDS011;40040;42.706;23.372;2023-02-11T06:51:12;16.57;;;7.20;;
6937;SDS011;40040;42.706;23.372;2023-02-11T06:53:41;16.20;;;7.27;;
6937;SDS011;40040;42.706;23.372;2023-02-11T06:56:10;21.97;;;9.50;;
6937;SDS011;40040;42.706;23.372;2023-02-11T06:58:39;16.00;;;7.10;;
6937;SDS011;40040;42.706;23.372;2023-02-11T07:01:07;22.67;;;8.30;;
6937;SDS011;40040;42.706;23.372;2023-02-11T07:03:36;19.17;;;8.67;;
6937;SDS011;40040;42.706;23.372;2023-02-11T07:06:04;20.70;;;10.10;;
6937;SDS011;40040;42.706;23.372;2023-02-11T07:08:33;19.23;;;9.50;;
6937;SDS011;40040;42.706;23.372;2023-02-11T07:11:07;32.40;;;12.93;;
6937;SDS011;40040;42.706;23.372;2023-02-11T07:13:35;40.43;;;12.43;;
6937;SDS011;40040;42.706;23.372;2023-02-11T07:16:04;33.00;;;13.97;;
6937;SDS011;40040;42.706;23.372;2023-02-11T07:18:31;31.73;;;12.77;;
6937;SDS011;40040;42.706;23.372;2023-02-11T07:20:58;32.40;;;14.70;;
6937;SDS011;40040;42.706;23.372;2023-02-11T07:23:25;36.83;;;15.73;;
6937;SDS011;40040;42.706;23.372;2023-02-11T07:25:52;36.07;;;16.43;;
6937;SDS011;40040;42.706;23.372;2023-02-11T07:28:19;46.93;;;16.67;;
6937;SDS011;40040;42.706;23.372;2023-02-11T07:30:45;36.50;;;16.43;;
6937;SDS011;40040;42.706;23.372;2023-02-11T07:33:14;44.27;;;18.77;;
6937;SDS011;40040;42.706;23.372;2023-02-11T07:35:40;45.53;;;18.53;;
6937;SDS011;40040;42.706;23.372;2023-02-11T07:38:07;41.67;;;18.40;;
6937;SDS011;40040;42.706;23.372;2023-02-11T07:40:35;45.77;;;17.40;;
6937;SDS011;40040;42.706;23.372;2023-02-11T07:43:02;42.77;;;16.67;;
6937;SDS011;40040;42.706;23.372;2023-02-11T07:45:28;37.70;;;16.57;;
6937;SDS011;40040;42.706;23.372;2023-02-11T07:47:55;60.10;;;29.52;;
6937;SDS011;40040;42.706;23.372;2023-02-11T07:50:23;45.23;;;21.13;;
6937;SDS011;40040;42.706;23.372;2023-02-11T07:52:50;39.97;;;18.47;;
6937;SDS011;40040;42.706;23.372;2023-02-11T07:55:17;40.37;;;17.37;;
6937;SDS011;40040;42.706;23.372;2023-02-11T07:57:44;41.20;;;16.03;;
6937;SDS011;40040;42.706;23.372;2023-02-11T08:00:11;40.03;;;16.50;;
6937;SDS011;40040;42.706;23.372;2023-02-11T08:02:39;34.40;;;16.73;;
6937;SDS011;40040;42.706;23.372;2023-02-11T08:05:06;41.60;;;16.43;;
6937;SDS011;40040;42.706;23.372;2023-02-11T08:07:34;36.33;;;16.37;;
6937;SDS011;40040;42.706;23.372;2023-02-11T08:10:02;35.10;;;15.97;;
6937;SDS011;40040;42.706;23.372;2023-02-11T08:12:30;33.13;;;14.97;;
6937;SDS011;40040;42.706;23.372;2023-02-11T08:14:56;33.17;;;14.00;;
6937;SDS011;40040;42.706;23.372;2023-02-11T08:17:23;31.13;;;13.63;;
6937;SDS011;40040;42.706;23.372;2023-02-11T08:19:50;30.40;;;12.07;;
6937;SDS011;40040;42.706;23.372;2023-02-11T08:22:17;22.87;;;11.30;;
6937;SDS011;40040;42.706;23.372;2023-02-11T08:24:45;26.60;;;12.63;;
6937;SDS011;40040;42.706;23.372;2023-02-11T08:27:12;26.30;;;12.33;;
6937;SDS011;40040;42.706;23.372;2023-02-11T08:29:39;31.73;;;15.47;;
6937;SDS011;40040;42.706;23.372;2023-02-11T08:32:05;30.73;;;13.77;;
6937;SDS011;40040;42.706;23.372;2023-02-11T08:34:32;30.07;;;14.23;;
6937;SDS011;40040;42.706;23.372;2023-02-11T08:36:59;29.30;;;13.30;;
6937;SDS011;40040;42.706;23.372;2023-02-11T08:39:26;31.00;;;14.67;;
6937;SDS011;40040;42.706;23.372;2023-02-11T08:41:54;30.20;;;14.73;;
6937;SDS011;40040;42.706;23.372;2023-02-11T08:44:22;32.03;;;14.83;;
6937;SDS011;40040;42.706;23.372;2023-02-11T08:46:50;45.33;;;20.25;;
6937;SDS011;40040;42.706;23.372;2023-02-11T08:49:17;37.83;;;15.23;;
6937;SDS011;40040;42.706;23.372;2023-02-11T08:51:44;37.07;;;15.80;;
6937;SDS011;40040;42.706;23.372;2023-02-11T08:54:12;47.80;;;20.70;;
6937;SDS011;40040;42.706;23.372;2023-02-11T08:56:39;33.53;;;15.50;;
6937;SDS011;40040;42.706;23.372;2023-02-11T08:59:08;27.97;;;14.23;;
6937;SDS011;40040;42.706;23.372;2023-02-11T09:01:37;30.17;;;14.93;;
6937;SDS011;40040;42.706;23.372;2023-02-11T09:04:04;30.23;;;15.10;;
6937;SDS011;40040;42.706;23.372;2023-02-11T09:06:31;27.00;;;13.17;;
6937;SDS011;40040;42.706;23.372;2023-02-11T09:08:58;31.03;;;13.57;;
6937;SDS011;40040;42.706;23.372;2023-02-11T09:11:26;28.93;;;14.80;;
6937;SDS011;40040;42.706;23.372;2023-02-11T09:13:54;32.83;;;15.63;;
6937;SDS011;40040;42.706;23.372;2023-02-11T09:16:24;48.20;;;20.65;;
6937;SDS011;40040;42.706;23.372;2023-02-11T09:18:51;34.63;;;15.93;;
6937;SDS011;40040;42.706;23.372;2023-02-11T09:21:19;32.40;;;16.20;;
6937;SDS011;40040;42.706;23.372;2023-02-11T09:23:46;25.50;;;13.50;;
6937;SDS011;40040;42.706;23.372;2023-02-11T09:26:14;29.80;;;14.40;;
6937;SDS011;40040;42.706;23.372;2023-02-11T09:28:42;26.83;;;14.13;;
6937;SDS011;40040;42.706;23.372;2023-02-11T09:31:10;28.43;;;14.77;;
6937;SDS011;40040;42.706;23.372;2023-02-11T09:33:40;27.17;;;14.53;;
6937;SDS011;40040;42.706;23.372;2023-02-11T09:36:12;32.50;;;18.20;;
6937;SDS011;40040;42.706;23.372;2023-02-11T09:38:40;46.60;;;22.40;;
6937;SDS011;40040;42.706;23.372;2023-02-11T09:41:13;31.57;;;15.77;;
6937;SDS011;40040;42.706;23.372;2023-02-11T09:43:56;27.27;;;14.33;;
6937;SDS011;40040;42.706;23.372;2023-02-11T09:46:28;29.03;;;16.00;;
6937;SDS011;40040;42.706;23.372;2023-02-11T09:48:58;31.00;;;15.53;;
6937;SDS011;40040;42.706;23.372;2023-02-11T09:51:28;33.13;;;16.90;;
6937;SDS011;40040;42.706;23.372;2023-02-11T09:54:05;27.73;;;14.47;;
6937;SDS011;40040;42.706;23.372;2023-02-11T09:56:38;30.40;;;15.83;;
6937;SDS011;40040;42.706;23.372;2023-02-11T09:59:05;30.63;;;15.07;;
6937;SDS011;40040;42.706;23.372;2023-02-11T10:01:37;23.90;;;13.23;;
6937;SDS011;40040;42.706;23.372;2023-02-11T10:04:11;25.40;;;14.03;;
6937;SDS011;40040;42.706;23.372;2023-02-11T10:06:43;26.90;;;13.37;;
6937;SDS011;40040;42.706;23.372;2023-02-11T10:09:15;23.90;;;13.07;;
6937;SDS011;40040;42.706;23.372;2023-02-11T10:11:56;23.37;;;12.77;;
6937;SDS011;40040;42.706;23.372;2023-02-11T10:14:45;25.80;;;12.97;;
6937;SDS011;40040;42.706;23.372;2023-02-11T10:17:24;20.23;;;11.87;;
6937;SDS011;40040;42.706;23.372;2023-02-11T10:20:03;22.17;;;13.70;;
6937;SDS011;40040;42.706;23.372;2023-02-11T10:22:42;23.77;;;13.10;;
6937;SDS011;40040;42.706;23.372;2023-02-11T10:25:16;29.27;;;15.40;;
6937;SDS011;40040;42.706;23.372;2023-02-11T10:27:46;29.13;;;14.13;;
6937;SDS011;40040;42.706;23.372;2023-02-11T10:30:18;24.57;;;12.60;;
6937;SDS011;40040;42.706;23.372;2023-02-11T10:32:50;24.57;;;14.67;;
6937;SDS011;40040;42.706;23.372;2023-02-11T10:35:22;27.87;;;14.30;;
6937;SDS011;40040;42.706;23.372;2023-02-11T10:37:51;25.97;;;13.47;;
6937;SDS011;40040;42.706;23.372;2023-02-11T10:40:19;29.23;;;15.10;;
6937;SDS011;40040;42.706;23.372;2023-02-11T10:42:49;26.30;;;13.97;;
6937;SDS011;40040;42.706;23.372;2023-02-11T10:45:21;23.77;;;12.47;;
6937;SDS011;40040;42.706;23.372;2023-02-11T10:47:51;24.70;;;15.48;;
6937;SDS011;40040;42.706;23.372;2023-02-11T10:50:22;21.83;;;12.80;;
6937;SDS011;40040;42.706;23.372;2023-02-11T10:52:50;21.00;;;12.17;;
6937;SDS011;40040;42.706;23.372;2023-02-11T10:55:17;22.17;;;12.43;;
6937;SDS011;40040;42.706;23.372;2023-02-11T10:57:51;19.05;;;11.43;;
6937;SDS011;40040;42.706;23.372;2023-02-11T11:00:32;19.60;;;11.27;;
6937;SDS011;40040;42.706;23.372;2023-02-11T11:03:02;20.95;;;11.85;;
6937;SDS011;40040;42.706;23.372;2023-02-11T11:05:33;23.85;;;12.63;;
6937;SDS011;40040;42.706;23.372;2023-02-11T11:08:02;22.77;;;13.10;;
6937;SDS011;40040;42.706;23.372;2023-02-11T11:10:34;23.42;;;13.55;;
6937;SDS011;40040;42.706;23.372;2023-02-11T11:13:22;20.02;;;12.18;;
6937;SDS011;40040;42.706;23.372;2023-02-11T11:18:48;20.38;;;11.30;;
6937;SDS011;40040;42.706;23.372;2023-02-11T11:21:18;21.27;;;11.80;;
6937;SDS011;40040;42.706;23.372;2023-02-11T11:23:57;19.02;;;11.18;;
6937;SDS011;40040;42.706;23.372;2023-02-11T11:26:25;22.27;;;11.43;;
6937;SDS011;40040;42.706;23.372;2023-02-11T11:28:56;17.95;;;11.05;;
6937;SDS011;40040;42.706;23.372;2023-02-11T11:31:26;20.40;;;10.82;;
6937;SDS011;40040;42.706;23.372;2023-02-11T11:33:56;19.17;;;11.00;;
6937;SDS011;40040;42.706;23.372;2023-02-11T11:36:31;15.70;;;9.80;;
6937;SDS011;40040;42.706;23.372;2023-02-11T11:39:02;16.75;;;9.50;;
6937;SDS011;40040;42.706;23.372;2023-02-11T11:41:53;15.85;;;9.93;;
6937;SDS011;40040;42.706;23.372;2023-02-11T11:44:24;18.05;;;10.02;;
6937;SDS011;40040;42.706;23.372;2023-02-11T11:47:03;16.52;;;10.13;;
6937;SDS011;40040;42.706;23.372;2023-02-11T11:49:43;17.38;;;10.60;;
6937;SDS011;40040;42.706;23.372;2023-02-11T11:52:17;15.43;;;9.52;;
6937;SDS011;40040;42.706;23.372;2023-02-11T11:54:53;18.98;;;10.15;;
6937;SDS011;40040;42.706;23.372;2023-02-11T11:57:24;16.25;;;10.43;;
6937;SDS011;40040;42.706;23.372;2023-02-11T11:59:54;31.98;;;13.07;;
6937;SDS011;40040;42.706;23.372;2023-02-11T12:05:17;28.13;;;13.05;;
6937;SDS011;40040;42.706;23.372;2023-02-11T12:07:55;47.28;;;19.40;;
6937;SDS011;40040;42.706;23.372;2023-02-11T12:10:32;16.85;;;9.45;;
6937;SDS011;40040;42.706;23.372;2023-02-11T12:13:11;23.85;;;12.25;;
6937;SDS011;40040;42.706;23.372;2023-02-11T12:15:49;14.13;;;9.35;;
6937;SDS011;40040;42.706;23.372;2023-02-11T12:21:23;14.18;;;8.10;;
6937;SDS011;40040;42.706;23.372;2023-02-11T12:24:15;12.63;;;8.40;;
6937;SDS011;40040;42.706;23.372;2023-02-11T12:26:52;26.45;;;13.63;;
6937;SDS011;40040;42.706;23.372;2023-02-11T12:29:26;22.30;;;12.60;;
6937;SDS011;40040;42.706;23.372;2023-02-11T12:32:08;20.83;;;13.25;;
6937;SDS011;40040;42.706;23.372;2023-02-11T12:34:50;12.55;;;7.95;;
6937;SDS011;40040;42.706;23.372;2023-02-11T12:37:38;29.35;;;14.45;;
6937;SDS011;40040;42.706;23.372;2023-02-11T12:40:14;15.50;;;9.23;;
6937;SDS011;40040;42.706;23.372;2023-02-11T12:42:51;20.20;;;9.88;;
6937;SDS011;40040;42.706;23.372;2023-02-11T12:45:51;19.27;;;9.20;;
6937;SDS011;40040;42.706;23.372;2023-02-11T12:51:31;14.73;;;8.25;;
6937;SDS011;40040;42.706;23.372;2023-02-11T12:54:09;20.17;;;11.45;;
6937;SDS011;40040;42.706;23.372;2023-02-11T12:56:45;15.60;;;10.20;;
6937;SDS011;40040;42.706;23.372;2023-02-11T12:59:19;14.43;;;9.00;;
6937;SDS011;40040;42.706;23.372;2023-02-11T13:01:54;14.27;;;9.63;;
6937;SDS011;40040;42.706;23.372;2023-02-11T13:04:25;15.07;;;9.40;;
6937;SDS011;40040;42.706;23.372;2023-02-11T13:07:01;15.73;;;9.40;;
6937;SDS011;40040;42.706;23.372;2023-02-11T13:09:34;12.48;;;9.30;;
6937;SDS011;40040;42.706;23.372;2023-02-11T13:12:08;15.95;;;9.20;;
6937;SDS011;40040;42.706;23.372;2023-02-11T13:14:57;14.38;;;9.60;;
6937;SDS011;40040;42.706;23.372;2023-02-11T13:17:28;14.10;;;8.95;;
6937;SDS011;40040;42.706;23.372;2023-02-11T13:20:00;19.45;;;9.00;;
6937;SDS011;40040;42.706;23.372;2023-02-11T13:22:33;13.13;;;8.57;;
6937;SDS011;40040;42.706;23.372;2023-02-11T13:25:14;15.43;;;9.45;;
6937;SDS011;40040;42.706;23.372;2023-02-11T13:27:49;14.80;;;8.60;;
6937;SDS011;40040;42.706;23.372;2023-02-11T13:30:24;13.57;;;8.93;;
6937;SDS011;40040;42.706;23.372;2023-02-11T13:33:03;11.95;;;8.32;;
6937;SDS011;40040;42.706;23.372;2023-02-11T13:35:32;12.38;;;7.55;;
6937;SDS011;40040;42.706;23.372;2023-02-11T13:38:00;13.73;;;8.48;;
6937;SDS011;40040;42.706;23.372;2023-02-11T13:40:29;16.00;;;8.90;;
6937;SDS011;40040;42.706;23.372;2023-02-11T13:43:00;17.88;;;9.30;;
6937;SDS011;40040;42.706;23.372;2023-02-11T13:45:30;15.48;;;7.85;;
6937;SDS011;40040;42.706;23.372;2023-02-11T13:48:02;11.88;;;7.75;;
6937;SDS011;40040;42.706;23.372;2023-02-11T13:50:31;17.47;;;9.53;;
6937;SDS011;40040;42.706;23.372;2023-02-11T13:53:04;11.60;;;7.83;;
6937;SDS011;40040;42.706;23.372;2023-02-11T13:55:32;17.87;;;8.87;;
6937;SDS011;40040;42.706;23.372;2023-02-11T13:58:25;14.60;;;8.43;;
6937;SDS011;40040;42.706;23.372;2023-02-11T14:01:01;14.80;;;8.20;;
6937;SDS011;40040;42.706;23.372;2023-02-11T14:03:35;11.87;;;7.73;;
6937;SDS011;40040;42.706;23.372;2023-02-11T14:06:22;17.30;;;8.30;;
6937;SDS011;40040;42.706;23.372;2023-02-11T14:12:20;14.37;;;8.90;;
6937;SDS011;40040;42.706;23.372;2023-02-11T14:14:58;16.67;;;9.57;;
6937;SDS011;40040;42.706;23.372;2023-02-11T14:17:40;14.60;;;8.30;;
6937;SDS011;40040;42.706;23.372;2023-02-11T14:23:03;20.57;;;9.33;;
6937;SDS011;40040;42.706;23.372;2023-02-11T14:25:31;14.87;;;7.37;;
6937;SDS011;40040;42.706;23.372;2023-02-11T14:28:00;13.43;;;7.67;;
6937;SDS011;40040;42.706;23.372;2023-02-11T14:30:42;14.47;;;7.47;;
6937;SDS011;40040;42.706;23.372;2023-02-11T14:36:31;15.33;;;7.20;;
6937;SDS011;40040;42.706;23.372;2023-02-11T14:39:11;15.00;;;8.27;;
6937;SDS011;40040;42.706;23.372;2023-02-11T14:41:46;15.30;;;9.10;;
6937;SDS011;40040;42.706;23.372;2023-02-11T14:44:15;19.60;;;11.20;;
6937;SDS011;40040;42.706;23.372;2023-02-11T14:46:48;13.43;;;7.70;;
6937;SDS011;40040;42.706;23.372;2023-02-11T14:49:19;17.43;;;9.30;;
6937;SDS011;40040;42.706;23.372;2023-02-11T14:51:52;13.73;;;8.17;;
6937;SDS011;40040;42.706;23.372;2023-02-11T14:54:22;16.07;;;8.40;;
6937;SDS011;40040;42.706;23.372;2023-02-11T14:57:04;23.70;;;12.23;;
6937;SDS011;40040;42.706;23.372;2023-02-11T14:59:33;14.17;;;7.83;;
6937;SDS011;40040;42.706;23.372;2023-02-11T15:02:01;14.83;;;8.63;;
6937;SDS011;40040;42.706;23.372;2023-02-11T15:04:29;11.00;;;7.33;;
6937;SDS011;40040;42.706;23.372;2023-02-11T15:06:57;14.93;;;8.70;;
6937;SDS011;40040;42.706;23.372;2023-02-11T15:09:31;13.40;;;7.83;;
6937;SDS011;40040;42.706;23.372;2023-02-11T15:12:02;15.43;;;8.07;;
6937;SDS011;40040;42.706;23.372;2023-02-11T15:14:31;45.07;;;18.27;;
6937;SDS011;40040;42.706;23.372;2023-02-11T15:17:02;23.60;;;13.47;;
6937;SDS011;40040;42.706;23.372;2023-02-11T15:19:31;19.30;;;9.00;;
6937;SDS011;40040;42.706;23.372;2023-02-11T15:22:01;12.70;;;7.47;;
6937;SDS011;40040;42.706;23.372;2023-02-11T15:24:31;13.23;;;7.77;;
6937;SDS011;40040;42.706;23.372;2023-02-11T15:27:00;16.13;;;9.60;;
6937;SDS011;40040;42.706;23.372;2023-02-11T15:29:33;18.23;;;9.83;;
6937;SDS011;40040;42.706;23.372;2023-02-11T15:32:04;18.07;;;9.83;;
6937;SDS011;40040;42.706;23.372;2023-02-11T15:34:32;21.87;;;12.23;;